createdAt,value
2023-05-24T00:00:56.678Z,159.80
2023-05-24T00:01:56.953Z,160.73
2023-05-24T00:02:56.803Z,160.32
2023-05-24T00:03:56.933Z,161.53
2023-05-24T00:04:56.846Z,161.15
2023-05-24T00:05:56.851Z,159.37
2023-05-24T00:06:56.903Z,161.53
2023-05-24T00:07:56.976Z,159.75
2023-05-24T00:08:56.960Z,157.89
2023-05-24T00:09:57.060Z,159.28
2023-05-24T00:10:57.023Z,160.56
2023-05-24T00:11:57.066Z,160.85
2023-05-24T00:12:57.104Z,157.59
2023-05-24T00:13:57.146Z,160.22
2023-05-24T00:14:57.176Z,158.37
2023-05-24T00:15:57.215Z,158.32
2023-05-24T00:16:57.634Z,160.41
2023-05-24T00:17:57.304Z,159.66
2023-05-24T00:18:57.326Z,158.14
2023-05-24T00:19:57.402Z,158.76
2023-05-24T00:20:57.470Z,159.24
2023-05-24T00:21:57.441Z,158.93
2023-05-24T00:22:57.483Z,159.98
2023-05-24T00:23:57.509Z,156.12
2023-05-24T00:24:57.534Z,157.83
2023-05-24T00:25:57.572Z,156.19
2023-05-24T00:26:57.606Z,158.08
2023-05-24T00:27:57.645Z,156.44
2023-05-24T00:28:57.679Z,157.08
2023-05-24T00:29:57.709Z,156.82
2023-05-24T00:30:57.754Z,155.59
2023-05-24T00:31:57.810Z,156.02
2023-05-24T00:32:57.870Z,156.25
2023-05-24T00:33:57.949Z,153.26
2023-05-24T00:34:57.910Z,153.56
2023-05-24T00:35:57.941Z,154.18
2023-05-24T00:36:58.015Z,156.57
2023-05-24T00:37:58.007Z,155.95
2023-05-24T00:38:58.037Z,153.61
2023-05-24T00:39:58.084Z,154.29
2023-05-24T00:40:58.119Z,154.89
2023-05-24T00:41:58.155Z,156.05
2023-05-24T00:42:58.282Z,153.74
2023-05-24T00:43:58.229Z,153.79
2023-05-24T00:44:58.264Z,154.54
2023-05-24T00:45:58.318Z,154.35
2023-05-24T00:46:58.347Z,153.60
2023-05-24T00:47:58.435Z,154.27
2023-05-24T00:48:58.430Z,153.90
2023-05-24T00:49:58.468Z,153.46
2023-05-24T00:50:58.498Z,154.19
2023-05-24T00:51:58.543Z,153.28
2023-05-24T00:52:58.594Z,154.78
2023-05-24T00:53:58.619Z,154.57
2023-05-24T00:54:58.666Z,152.77
2023-05-24T00:55:58.709Z,153.64
2023-05-24T00:56:58.767Z,155.13
2023-05-24T00:57:58.806Z,153.35
2023-05-24T00:58:58.842Z,152.77
2023-05-24T00:59:58.887Z,153.38
2023-05-24T01:00:58.932Z,152.87
2023-05-24T01:01:59.459Z,153.43
2023-05-24T01:02:59.120Z,152.77
2023-05-24T01:03:59.159Z,153.60
2023-05-24T01:04:59.184Z,152.66
2023-05-24T01:05:59.157Z,154.35
2023-05-24T01:06:59.189Z,154.03
2023-05-24T01:07:59.238Z,154.23
2023-05-24T01:08:59.275Z,154.23
2023-05-24T01:09:59.334Z,152.13
2023-05-24T01:10:59.369Z,153.33
2023-05-24T01:11:59.417Z,153.53
2023-05-24T01:12:59.453Z,151.59
2023-05-24T01:13:59.533Z,151.01
2023-05-24T01:14:59.551Z,151.33
2023-05-24T01:15:59.626Z,151.07
2023-05-24T01:16:59.612Z,152.28
2023-05-24T01:17:59.710Z,151.56
2023-05-24T01:18:59.688Z,152.75
2023-05-24T01:19:59.767Z,151.30
2023-05-24T01:20:59.791Z,151.39
2023-05-24T01:21:59.812Z,151.27
2023-05-24T01:22:59.860Z,151.39
2023-05-24T01:23:59.882Z,150.76
2023-05-24T01:24:59.931Z,150.39
2023-05-24T01:26:00.033Z,151.35
2023-05-24T01:27:00.009Z,150.60
2023-05-24T01:28:00.047Z,151.99
2023-05-24T01:29:00.105Z,150.69
2023-05-24T01:30:00.165Z,149.52
2023-05-24T01:31:00.240Z,151.18
2023-05-24T01:32:00.230Z,149.60
2023-05-24T01:33:00.338Z,151.74
2023-05-24T01:34:00.302Z,148.48
2023-05-24T01:35:00.348Z,149.82
2023-05-24T01:36:00.397Z,149.66
2023-05-24T01:37:00.407Z,149.52
2023-05-24T01:38:00.450Z,148.90
2023-05-24T01:39:00.501Z,147.61
2023-05-24T01:40:00.531Z,147.82
2023-05-24T01:41:00.949Z,146.98
2023-05-24T01:42:00.592Z,148.99
2023-05-24T01:43:00.638Z,148.31
2023-05-24T01:44:00.677Z,145.99
2023-05-24T01:45:00.783Z,146.45
2023-05-24T01:46:00.761Z,146.57
2023-05-24T01:47:00.810Z,146.89
2023-05-24T01:48:00.872Z,148.80
2023-05-24T01:49:00.879Z,146.96
2023-05-24T01:50:00.986Z,149.23
2023-05-24T01:51:00.960Z,147.80
2023-05-24T01:52:01.016Z,145.47
2023-05-24T01:53:01.042Z,148.66
2023-05-24T01:54:01.091Z,148.02
2023-05-24T01:55:01.107Z,145.96
2023-05-24T01:56:01.156Z,149.11
2023-05-24T01:57:01.205Z,146.48
2023-05-24T01:58:01.238Z,145.16
2023-05-24T01:59:01.277Z,146.86
2023-05-24T02:00:01.346Z,147.76
2023-05-24T02:01:01.394Z,146.83
2023-05-24T02:02:01.406Z,145.67
2023-05-24T02:03:01.602Z,146.90
2023-05-24T02:04:01.496Z,146.77
2023-05-24T02:05:01.515Z,145.40
2023-05-24T02:06:01.556Z,147.26
2023-05-24T02:07:01.602Z,147.07
2023-05-24T02:08:01.634Z,147.05
2023-05-24T02:09:01.694Z,147.61
2023-05-24T02:10:01.739Z,146.04
2023-05-24T02:11:01.780Z,145.80
2023-05-24T02:12:01.817Z,147.22
2023-05-24T02:13:01.863Z,146.19
2023-05-24T02:14:01.910Z,143.85
2023-05-24T02:15:01.955Z,144.63
2023-05-24T02:16:01.992Z,146.56
2023-05-24T02:17:02.749Z,146.52
2023-05-24T02:18:02.115Z,145.64
2023-05-24T02:19:02.113Z,143.13
2023-05-24T02:20:02.222Z,144.73
2023-05-24T02:21:02.206Z,144.06
2023-05-24T02:22:02.247Z,146.50
2023-05-24T02:23:02.318Z,145.05
2023-05-24T02:24:02.328Z,144.21
2023-05-24T02:25:02.375Z,143.53
2023-05-24T02:26:02.419Z,144.81
2023-05-24T02:27:02.452Z,142.42
2023-05-24T02:28:02.505Z,145.14
2023-05-24T02:29:02.558Z,143.98
2023-05-24T02:30:02.618Z,143.20
2023-05-24T02:31:02.669Z,144.92
2023-05-24T02:32:02.695Z,145.24
2023-05-24T02:33:02.742Z,143.89
2023-05-24T02:34:02.969Z,143.17
2023-05-24T02:35:02.808Z,144.68
2023-05-24T02:36:02.865Z,143.67
2023-05-24T02:37:02.919Z,145.12
2023-05-24T02:38:02.988Z,142.08
2023-05-24T02:39:03.051Z,142.67
2023-05-24T02:40:03.099Z,142.89
2023-05-24T02:41:03.146Z,144.73
2023-05-24T02:42:03.202Z,143.18
2023-05-24T02:43:03.258Z,143.42
2023-05-24T02:44:03.309Z,138.62
2023-05-24T02:45:03.390Z,142.50
2023-05-24T02:46:03.418Z,141.68
2023-05-24T02:47:03.443Z,139.67
2023-05-24T02:48:03.551Z,143.57
2023-05-24T02:49:03.540Z,138.74
2023-05-24T02:50:03.597Z,138.24
2023-05-24T02:51:03.640Z,140.91
2023-05-24T02:52:03.705Z,139.12
2023-05-24T02:53:03.752Z,139.25
2023-05-24T02:54:03.807Z,136.83
2023-05-24T02:55:03.863Z,140.08
2023-05-24T02:56:03.981Z,137.96
2023-05-24T02:57:03.977Z,138.51
2023-05-24T02:58:04.012Z,136.18
2023-05-24T02:59:04.089Z,137.60
2023-05-24T03:00:04.148Z,137.66
2023-05-24T03:01:04.204Z,136.03
2023-05-24T03:02:04.365Z,135.54
2023-05-24T03:03:04.369Z,137.78
2023-05-24T03:04:04.447Z,136.99
2023-05-24T03:05:04.410Z,137.55
2023-05-24T03:06:04.477Z,136.76
2023-05-24T03:07:04.525Z,136.65
2023-05-24T03:08:04.576Z,137.73
2023-05-24T03:09:04.636Z,134.89
2023-05-24T03:10:04.686Z,136.81
2023-05-24T03:11:04.756Z,135.86
2023-05-24T03:12:04.813Z,136.10
2023-05-24T03:13:04.882Z,136.14
2023-05-24T03:14:04.932Z,135.63
2023-05-24T03:15:04.984Z,136.17
2023-05-24T03:16:05.057Z,135.77
2023-05-24T03:17:05.085Z,137.79
2023-05-24T03:18:05.153Z,134.01
2023-05-24T03:19:06.498Z,138.11
2023-05-24T03:20:05.398Z,135.39
2023-05-24T03:21:05.386Z,135.36
2023-05-24T03:22:05.509Z,134.65
2023-05-24T03:23:05.487Z,135.54
2023-05-24T03:24:05.535Z,135.39
2023-05-24T03:25:05.589Z,134.75
2023-05-24T03:26:05.653Z,135.94
2023-05-24T03:27:05.718Z,133.57
2023-05-24T03:28:05.753Z,133.53
2023-05-24T03:29:05.796Z,132.81
2023-05-24T03:30:05.906Z,133.53
2023-05-24T03:31:05.913Z,132.12
2023-05-24T03:32:06.000Z,132.81
2023-05-24T03:33:06.050Z,131.90
2023-05-24T03:34:06.078Z,132.31
2023-05-24T03:35:06.181Z,132.53
2023-05-24T03:36:06.208Z,132.67
2023-05-24T03:37:06.255Z,131.21
2023-05-24T03:38:06.299Z,132.46
2023-05-24T03:39:06.363Z,133.18
2023-05-24T03:40:06.396Z,131.14
2023-05-24T03:41:06.469Z,131.73
2023-05-24T03:42:06.521Z,133.00
2023-05-24T03:43:06.582Z,130.38
2023-05-24T03:44:06.626Z,132.58
2023-05-24T03:45:06.672Z,131.91
2023-05-24T03:46:06.751Z,131.49
2023-05-24T03:47:06.783Z,131.08
2023-05-24T03:48:06.928Z,131.76
2023-05-24T03:49:06.884Z,133.90
2023-05-24T03:50:06.933Z,133.07
2023-05-24T03:51:06.992Z,132.02
2023-05-24T03:52:07.041Z,131.99
2023-05-24T03:53:07.086Z,131.99
2023-05-24T03:54:07.173Z,132.77
2023-05-24T03:55:08.002Z,133.33
2023-05-24T03:56:07.232Z,132.74
2023-05-24T03:57:07.297Z,130.61
2023-05-24T03:58:07.337Z,129.63
2023-05-24T03:59:07.379Z,130.65
2023-05-24T04:00:07.429Z,129.91
2023-05-24T04:01:07.490Z,129.15
2023-05-24T04:02:07.591Z,128.48
2023-05-24T04:03:07.684Z,130.49
2023-05-24T04:04:07.777Z,130.57
2023-05-24T04:05:07.696Z,129.56
2023-05-24T04:06:07.759Z,128.84
2023-05-24T04:07:07.788Z,129.39
2023-05-24T04:08:07.837Z,127.61
2023-05-24T04:09:07.884Z,128.76
2023-05-24T04:10:08.010Z,127.93
2023-05-24T04:11:07.999Z,128.66
2023-05-24T04:12:08.055Z,130.75
2023-05-24T04:13:08.109Z,129.49
2023-05-24T04:14:08.168Z,127.97
2023-05-24T04:15:08.221Z,129.32
2023-05-24T04:16:08.347Z,129.02
2023-05-24T04:17:08.397Z,127.62
2023-05-24T04:18:08.494Z,127.01
2023-05-24T04:19:08.484Z,129.26
2023-05-24T04:20:08.535Z,126.71
2023-05-24T04:21:08.553Z,128.74
2023-05-24T04:22:08.612Z,126.80
2023-05-24T04:23:08.665Z,129.76
2023-05-24T04:24:08.768Z,127.53
2023-05-24T04:25:08.830Z,126.12
2023-05-24T04:26:08.828Z,127.58
2023-05-24T04:27:08.878Z,129.82
2023-05-24T04:28:08.950Z,126.92
2023-05-24T04:29:09.062Z,127.84
2023-05-24T04:30:09.058Z,126.96
2023-05-24T04:31:09.197Z,126.62
2023-05-24T04:32:09.233Z,127.61
2023-05-24T04:33:09.317Z,126.75
2023-05-24T04:34:09.304Z,126.96
2023-05-24T04:35:09.360Z,127.21
2023-05-24T04:36:09.418Z,128.24
2023-05-24T04:37:09.478Z,125.98
2023-05-24T04:38:09.529Z,126.59
2023-05-24T04:39:09.592Z,127.19
2023-05-24T04:40:09.655Z,126.55
2023-05-24T04:41:09.833Z,128.37
2023-05-24T04:42:09.795Z,127.39
2023-05-24T04:43:09.837Z,126.36
2023-05-24T04:44:09.889Z,126.10
2023-05-24T04:45:09.942Z,126.10
2023-05-24T04:46:10.021Z,126.10
2023-05-24T04:47:10.074Z,124.82
2023-05-24T04:48:10.105Z,127.12
2023-05-24T04:49:10.177Z,126.59
2023-05-24T04:50:10.251Z,124.67
2023-05-24T04:51:10.314Z,126.31
2023-05-24T04:52:10.344Z,126.40
2023-05-24T04:53:10.393Z,124.44
2023-05-24T04:54:10.504Z,124.85
2023-05-24T04:55:10.493Z,127.00
2023-05-24T04:56:10.551Z,127.45
2023-05-24T04:57:10.608Z,125.46
2023-05-24T04:58:10.856Z,126.74
2023-05-24T04:59:10.704Z,124.86
2023-05-24T05:00:10.760Z,124.18
2023-05-24T05:01:10.835Z,124.78
2023-05-24T05:02:10.956Z,125.94
2023-05-24T05:03:10.988Z,123.44
2023-05-24T05:04:11.032Z,124.86
2023-05-24T05:05:11.039Z,124.79
2023-05-24T05:06:11.081Z,125.33
2023-05-24T05:07:11.135Z,123.42
2023-05-24T05:08:11.197Z,122.58
2023-05-24T05:09:11.251Z,124.35
2023-05-24T05:10:11.301Z,123.99
2023-05-24T05:11:11.336Z,123.16
2023-05-24T05:12:11.411Z,122.65
2023-05-24T05:13:11.492Z,124.76
2023-05-24T05:14:11.557Z,125.56
2023-05-24T05:15:11.559Z,124.18
2023-05-24T05:16:11.705Z,122.96
2023-05-24T05:17:11.705Z,126.18
2023-05-24T05:18:11.737Z,124.35
2023-05-24T05:19:11.786Z,127.87
2023-05-24T05:20:11.862Z,127.86
2023-05-24T05:21:11.895Z,128.47
2023-05-24T05:22:11.947Z,130.18
2023-05-24T05:23:12.000Z,129.36
2023-05-24T05:24:12.054Z,133.09
2023-05-24T05:25:12.117Z,135.90
2023-05-24T05:26:12.160Z,142.27
2023-05-24T05:27:13.019Z,145.01
2023-05-24T05:28:12.260Z,146.53
2023-05-24T05:29:12.319Z,155.58
2023-05-24T05:30:12.350Z,159.78
2023-05-24T05:31:12.458Z,168.46
2023-05-24T05:32:12.513Z,176.24
2023-05-24T05:33:12.547Z,185.86
2023-05-24T05:34:12.515Z,194.68
2023-05-24T05:35:12.508Z,201.63
2023-05-24T05:36:12.528Z,209.88
2023-05-24T05:37:12.530Z,218.21
2023-05-24T05:38:12.568Z,226.20
2023-05-24T05:39:12.535Z,236.06
2023-05-24T05:40:12.538Z,246.34
2023-05-24T05:41:12.557Z,250.00
2023-05-24T05:42:13.550Z,249.78
2023-05-24T05:43:12.640Z,250.00
2023-05-24T05:44:12.696Z,249.27
2023-05-24T05:45:12.840Z,250.00
2023-05-24T05:46:12.822Z,250.00
2023-05-24T05:47:12.869Z,250.00
2023-05-24T05:48:12.915Z,249.29
2023-05-24T05:49:13.021Z,249.72
2023-05-24T05:50:13.008Z,249.64
2023-05-24T05:51:13.155Z,250.00
2023-05-24T05:52:13.093Z,250.00
2023-05-24T05:53:13.104Z,249.17
2023-05-24T05:54:13.143Z,250.00
2023-05-24T05:55:13.165Z,249.32
2023-05-24T05:56:13.272Z,250.00
2023-05-24T05:57:14.037Z,250.00
2023-05-24T05:58:13.212Z,249.86
2023-05-24T05:59:14.044Z,250.00
2023-05-24T06:00:13.232Z,249.73
2023-05-24T06:01:13.342Z,250.00
2023-05-24T06:02:13.289Z,250.00
2023-05-24T06:03:13.394Z,248.97
2023-05-24T06:04:13.318Z,249.82
2023-05-24T06:05:14.049Z,249.41
2023-05-24T06:06:13.251Z,248.47
2023-05-24T06:07:13.254Z,249.05
2023-05-24T06:08:13.249Z,249.64
2023-05-24T06:09:13.255Z,248.76
2023-05-24T06:10:13.250Z,249.05
2023-05-24T06:11:13.225Z,250.00
2023-05-24T06:12:13.214Z,250.00
2023-05-24T06:13:13.208Z,249.22
2023-05-24T06:14:13.566Z,250.00
2023-05-24T06:15:13.319Z,249.49
2023-05-24T06:16:13.219Z,250.00
2023-05-24T06:17:13.238Z,249.76
2023-05-24T06:18:13.178Z,249.46
2023-05-24T06:19:13.257Z,250.00
2023-05-24T06:20:13.205Z,248.48
2023-05-24T06:21:13.231Z,249.16
2023-05-24T06:22:13.178Z,250.00
2023-05-24T06:23:13.153Z,249.61
2023-05-24T06:24:13.153Z,250.00
2023-05-24T06:25:13.135Z,230.09
2023-05-24T06:26:13.128Z,213.51
2023-05-24T06:27:13.121Z,211.49
2023-05-24T06:28:13.106Z,191.64
2023-05-24T06:29:13.109Z,179.22
2023-05-24T06:30:13.170Z,165.38
2023-05-24T06:31:13.148Z,151.94
2023-05-24T06:32:13.076Z,138.02
2023-05-24T06:33:13.081Z,135.96
2023-05-24T06:34:13.082Z,128.39
2023-05-24T06:35:13.088Z,124.68
2023-05-24T06:36:13.071Z,118.79
2023-05-24T06:37:13.057Z,114.98
2023-05-24T06:38:13.063Z,109.39
2023-05-24T06:39:13.055Z,105.64
2023-05-24T06:40:13.037Z,99.66
2023-05-24T06:41:13.034Z,94.19
2023-05-24T06:42:13.030Z,89.33
2023-05-24T06:43:13.026Z,89.50
2023-05-24T06:44:13.075Z,94.34
2023-05-24T06:45:13.973Z,103.17
2023-05-24T06:46:13.020Z,105.97
2023-05-24T06:47:13.052Z,107.99
2023-05-24T06:48:13.080Z,109.90
2023-05-24T06:49:13.072Z,110.95
2023-05-24T06:50:12.978Z,109.21
2023-05-24T06:51:13.005Z,110.98
2023-05-24T06:52:12.970Z,114.35
2023-05-24T06:53:12.964Z,115.63
2023-05-24T06:54:12.954Z,114.79
2023-05-24T06:55:12.964Z,117.02
2023-05-24T06:56:12.938Z,116.93
2023-05-24T06:57:12.937Z,116.61
2023-05-24T06:58:12.934Z,117.73
2023-05-24T06:59:13.001Z,117.20
2023-05-24T07:00:13.022Z,119.73
2023-05-24T07:01:12.921Z,120.17
2023-05-24T07:02:12.907Z,119.78
2023-05-24T07:03:12.896Z,121.21
2023-05-24T07:04:12.921Z,124.10
2023-05-24T07:05:12.886Z,124.46
2023-05-24T07:06:12.889Z,127.01
2023-05-24T07:07:12.883Z,129.70
2023-05-24T07:08:12.872Z,131.38
2023-05-24T07:09:12.852Z,134.63
2023-05-24T07:10:12.874Z,138.08
2023-05-24T07:11:12.884Z,141.23
2023-05-24T07:12:12.850Z,143.92
2023-05-24T07:13:12.831Z,146.85
2023-05-24T07:14:12.904Z,149.53
2023-05-24T07:15:12.832Z,150.89
2023-05-24T07:16:12.807Z,154.79
2023-05-24T07:17:12.916Z,156.62
2023-05-24T07:18:12.831Z,159.77
2023-05-24T07:19:12.826Z,163.30
2023-05-24T07:20:12.885Z,167.22
2023-05-24T07:21:13.061Z,158.75
2023-05-24T07:22:12.915Z,127.44
2023-05-24T07:23:12.858Z,93.66
2023-05-24T07:24:15.384Z,66.67
2023-05-24T07:25:12.893Z,44.51
2023-05-24T07:26:12.900Z,23.11
2023-05-24T07:27:14.074Z,12.83
2023-05-24T07:28:12.864Z,13.13
2023-05-24T07:29:12.865Z,13.53
2023-05-24T07:30:23.747Z,15.60
2023-05-24T07:31:14.081Z,10.93
2023-05-24T07:32:12.852Z,5.04
2023-05-24T07:33:12.905Z,2.94
2023-05-24T07:34:12.840Z,1.39
2023-05-24T07:35:12.821Z,5.70
2023-05-24T07:36:12.805Z,20.32
2023-05-24T07:37:12.804Z,25.56
2023-05-24T07:38:12.810Z,32.47
2023-05-24T07:39:12.789Z,39.07
2023-05-24T07:40:12.798Z,49.03
2023-05-24T07:41:12.779Z,54.51
2023-05-24T07:42:12.832Z,55.50
2023-05-24T07:43:12.843Z,59.40
2023-05-24T07:44:12.757Z,63.89
2023-05-24T07:45:12.781Z,68.53
2023-05-24T07:46:12.866Z,71.14
2023-05-24T07:47:12.890Z,75.67
2023-05-24T07:48:12.965Z,79.44
2023-05-24T07:49:12.986Z,82.28
2023-05-24T07:50:13.026Z,89.72
2023-05-24T07:51:13.063Z,93.45
2023-05-24T07:52:13.147Z,96.38
2023-05-24T07:53:13.094Z,99.63
2023-05-24T07:54:13.099Z,102.57
2023-05-24T07:55:13.154Z,105.76
2023-05-24T07:56:13.656Z,108.07
2023-05-24T07:57:13.150Z,112.54
2023-05-24T07:58:14.022Z,114.65
2023-05-24T07:59:15.171Z,118.85
2023-05-24T08:00:13.150Z,127.35
2023-05-24T08:01:13.180Z,135.13
2023-05-24T08:02:13.210Z,139.53
2023-05-24T08:03:13.411Z,165.48
2023-05-24T08:04:13.313Z,176.63
2023-05-24T08:05:13.372Z,180.71
2023-05-24T08:06:13.426Z,181.34
2023-05-24T08:07:13.502Z,183.94
2023-05-24T08:08:13.522Z,183.99
2023-05-24T08:09:13.770Z,185.21
2023-05-24T08:10:13.820Z,186.98
2023-05-24T08:11:13.779Z,189.20
2023-05-24T08:12:15.588Z,178.57
2023-05-24T08:13:13.764Z,168.26
2023-05-24T08:14:13.773Z,146.30
2023-05-24T08:15:13.717Z,128.02
2023-05-24T08:16:13.800Z,114.79
2023-05-24T08:17:13.792Z,91.14
2023-05-24T08:18:13.820Z,71.57
2023-05-24T08:19:13.698Z,59.63
2023-05-24T08:20:13.813Z,54.36
2023-05-24T08:21:13.693Z,47.05
2023-05-24T08:22:13.702Z,46.90
2023-05-24T08:23:13.659Z,40.22
2023-05-24T08:24:13.651Z,35.44
2023-05-24T08:25:13.658Z,41.77
2023-05-24T08:26:13.651Z,48.67
2023-05-24T08:27:13.726Z,61.01
2023-05-24T08:28:13.694Z,71.47
2023-05-24T08:29:13.621Z,81.62
2023-05-24T08:30:13.668Z,92.20
2023-05-24T08:31:13.649Z,101.52
2023-05-24T08:32:13.687Z,106.98
2023-05-24T08:33:13.633Z,113.66
2023-05-24T08:34:13.593Z,120.49
2023-05-24T08:35:20.724Z,125.36
2023-05-24T08:36:14.586Z,125.59
2023-05-24T08:37:15.572Z,126.65
2023-05-24T08:38:13.820Z,129.93
2023-05-24T08:39:14.605Z,135.82
2023-05-24T08:40:13.936Z,145.55
2023-05-24T08:41:14.041Z,147.96
2023-05-24T08:42:13.998Z,150.78
2023-05-24T08:43:14.048Z,153.43
2023-05-24T08:44:14.048Z,156.11
2023-05-24T08:45:14.123Z,159.29
2023-05-24T08:46:14.274Z,161.42
2023-05-24T08:47:14.227Z,162.23
2023-05-24T08:48:14.367Z,164.35
2023-05-24T08:49:14.424Z,165.12
2023-05-24T08:50:14.419Z,168.03
2023-05-24T08:51:14.538Z,168.89
2023-05-24T08:52:14.525Z,170.07
2023-05-24T08:53:14.593Z,172.33
2023-05-24T08:54:14.689Z,174.06
2023-05-24T08:55:14.694Z,175.41
2023-05-24T08:56:14.756Z,177.36
2023-05-24T08:57:15.606Z,177.65
2023-05-24T08:58:14.911Z,178.96
2023-05-24T08:59:14.888Z,181.08
2023-05-24T09:00:14.962Z,182.10
2023-05-24T09:01:15.100Z,182.09
2023-05-24T09:02:15.055Z,183.64
2023-05-24T09:03:15.085Z,185.65
2023-05-24T09:04:15.087Z,185.41
2023-05-24T09:05:15.086Z,187.61
2023-05-24T09:06:15.111Z,189.34
2023-05-24T09:07:15.125Z,189.38
2023-05-24T09:08:15.154Z,191.62
2023-05-24T09:09:15.180Z,191.63
2023-05-24T09:10:15.200Z,192.79
2023-05-24T09:11:15.231Z,195.67
2023-05-24T09:12:19.222Z,197.02
2023-05-24T09:13:16.248Z,197.12
2023-05-24T09:14:15.241Z,197.72
2023-05-24T09:15:15.322Z,199.02
2023-05-24T09:16:15.315Z,201.82
2023-05-24T09:17:15.222Z,207.00
2023-05-24T09:18:15.259Z,210.89
2023-05-24T09:19:15.212Z,212.25
2023-05-24T09:20:15.255Z,213.48
2023-05-24T09:21:15.203Z,214.90
2023-05-24T09:22:15.196Z,215.83
2023-05-24T09:23:15.194Z,217.20
2023-05-24T09:24:16.086Z,217.71
2023-05-24T09:25:15.320Z,217.63
2023-05-24T09:26:15.176Z,218.04
2023-05-24T09:27:15.148Z,218.36
2023-05-24T09:28:15.153Z,219.37
2023-05-24T09:29:15.170Z,219.81
2023-05-24T09:30:15.146Z,219.15
2023-05-24T09:31:15.645Z,220.83
2023-05-24T09:32:15.140Z,220.08
2023-05-24T09:33:15.247Z,220.14
2023-05-24T09:34:15.227Z,220.64
2023-05-24T09:35:15.273Z,220.08
2023-05-24T09:36:15.358Z,220.72
2023-05-24T09:37:15.389Z,221.75
2023-05-24T09:38:15.454Z,221.86
2023-05-24T09:39:15.520Z,222.88
2023-05-24T09:40:16.154Z,222.33
2023-05-24T09:41:15.629Z,222.02
2023-05-24T09:42:15.694Z,222.04
2023-05-24T09:43:15.773Z,221.87
2023-05-24T09:44:15.778Z,221.96
2023-05-24T09:45:15.797Z,222.88
2023-05-24T09:46:15.850Z,221.87
2023-05-24T09:47:15.863Z,223.43
2023-05-24T09:48:15.864Z,223.29
2023-05-24T09:49:15.870Z,223.18
2023-05-24T09:50:15.961Z,223.39
2023-05-24T09:51:15.915Z,222.94
2023-05-24T09:52:15.917Z,222.86
2023-05-24T09:53:15.907Z,222.81
2023-05-24T09:54:15.900Z,222.59
2023-05-24T09:55:15.922Z,223.67
2023-05-24T09:56:16.705Z,223.41
2023-05-24T09:57:15.896Z,222.88
2023-05-24T09:58:16.630Z,223.01
2023-05-24T09:59:15.907Z,222.26
2023-05-24T10:00:15.938Z,222.07
2023-05-24T10:01:16.032Z,223.34
2023-05-24T10:02:15.961Z,222.18
2023-05-24T10:03:16.080Z,223.21
2023-05-24T10:04:16.122Z,222.54
2023-05-24T10:05:16.070Z,222.98
2023-05-24T10:06:16.087Z,222.42
2023-05-24T10:07:16.130Z,223.11
2023-05-24T10:08:16.201Z,220.16
2023-05-24T10:09:16.200Z,221.01
2023-05-24T10:10:16.212Z,221.49
2023-05-24T10:11:16.250Z,219.75
2023-05-24T10:12:16.283Z,220.11
2023-05-24T10:13:16.258Z,218.94
2023-05-24T10:14:16.305Z,218.76
2023-05-24T10:15:16.328Z,218.46
2023-05-24T10:16:16.380Z,218.09
2023-05-24T10:17:16.350Z,218.14
2023-05-24T10:18:16.471Z,217.05
2023-05-24T10:19:16.373Z,217.62
2023-05-24T10:20:16.425Z,217.70
2023-05-24T10:21:16.451Z,217.43
2023-05-24T10:22:16.447Z,216.89
2023-05-24T10:23:16.466Z,216.48
2023-05-24T10:24:16.452Z,216.97
2023-05-24T10:25:16.470Z,215.34
2023-05-24T10:26:16.472Z,216.40
2023-05-24T10:27:16.487Z,214.76
2023-05-24T10:28:16.510Z,215.17
2023-05-24T10:29:16.520Z,213.96
2023-05-24T10:30:16.544Z,214.70
2023-05-24T10:31:16.684Z,215.32
2023-05-24T10:32:16.570Z,213.42
2023-05-24T10:33:16.816Z,213.06
2023-05-24T10:34:17.563Z,212.48
2023-05-24T10:35:16.611Z,212.57
2023-05-24T10:36:16.636Z,213.00
2023-05-24T10:37:16.646Z,212.88
2023-05-24T10:38:16.678Z,211.49
2023-05-24T10:39:16.682Z,211.49
2023-05-24T10:40:16.683Z,213.37
2023-05-24T10:41:16.719Z,210.50
2023-05-24T10:42:16.717Z,211.64
2023-05-24T10:43:16.762Z,208.54
2023-05-24T10:44:16.749Z,210.02
2023-05-24T10:45:16.827Z,208.73
2023-05-24T10:46:16.909Z,210.21
2023-05-24T10:47:16.819Z,208.23
2023-05-24T10:48:16.863Z,209.08
2023-05-24T10:49:17.255Z,209.05
2023-05-24T10:50:16.848Z,208.42
2023-05-24T10:51:16.864Z,208.39
2023-05-24T10:52:17.181Z,207.64
2023-05-24T10:53:16.902Z,207.73
2023-05-24T10:54:17.704Z,207.94
2023-05-24T10:55:16.995Z,206.55
2023-05-24T10:56:16.944Z,207.02
2023-05-24T10:57:16.957Z,205.47
2023-05-24T10:58:17.022Z,205.48
2023-05-24T10:59:16.985Z,205.75
2023-05-24T11:00:26.776Z,204.42
2023-05-24T11:01:18.051Z,204.50
2023-05-24T11:02:17.047Z,203.82
2023-05-24T11:03:17.018Z,204.14
2023-05-24T11:04:17.006Z,203.54
2023-05-24T11:05:17.050Z,201.99
2023-05-24T11:06:17.005Z,201.26
2023-05-24T11:07:16.969Z,202.13
2023-05-24T11:08:16.960Z,201.92
2023-05-24T11:09:16.943Z,200.28
2023-05-24T11:10:16.948Z,201.45
2023-05-24T11:11:25.438Z,200.42
2023-05-24T11:12:18.004Z,200.49
2023-05-24T11:13:16.923Z,200.65
2023-05-24T11:14:16.924Z,200.68
2023-05-24T11:15:16.969Z,200.72
2023-05-24T11:16:16.972Z,200.52
2023-05-24T11:17:16.910Z,198.86
2023-05-24T11:18:16.922Z,199.02
2023-05-24T11:19:16.897Z,198.84
2023-05-24T11:20:17.731Z,199.96
2023-05-24T11:21:17.677Z,198.65
2023-05-24T11:22:16.943Z,199.21
2023-05-24T11:23:16.885Z,198.78
2023-05-24T11:24:16.849Z,197.91
2023-05-24T11:25:16.852Z,196.72
2023-05-24T11:26:16.858Z,199.05
2023-05-24T11:27:16.843Z,196.55
2023-05-24T11:28:16.877Z,197.18
2023-05-24T11:29:16.838Z,195.52
2023-05-24T11:30:16.866Z,196.21
2023-05-24T11:31:16.846Z,196.05
2023-05-24T11:32:16.934Z,194.86
2023-05-24T11:33:16.843Z,194.87
2023-05-24T11:34:16.784Z,194.31
2023-05-24T11:35:16.801Z,195.12
2023-05-24T11:36:17.595Z,193.50
2023-05-24T11:37:18.223Z,193.68
2023-05-24T11:38:16.851Z,193.53
2023-05-24T11:39:16.891Z,191.70
2023-05-24T11:40:16.872Z,192.91
2023-05-24T11:41:16.908Z,192.95
2023-05-24T11:42:16.958Z,191.74
2023-05-24T11:43:17.022Z,192.91
2023-05-24T11:44:16.955Z,192.23
2023-05-24T11:45:17.675Z,190.53
2023-05-24T11:46:17.017Z,191.30
2023-05-24T11:47:17.009Z,191.60
2023-05-24T11:48:17.122Z,191.41
2023-05-24T11:49:17.059Z,191.61
2023-05-24T11:50:17.120Z,191.75
2023-05-24T11:51:17.107Z,192.39
2023-05-24T11:52:17.108Z,191.86
2023-05-24T11:53:17.132Z,189.93
2023-05-24T11:54:17.156Z,190.18
2023-05-24T11:55:17.217Z,189.58
2023-05-24T11:56:17.194Z,187.95
2023-05-24T11:57:17.225Z,188.82
2023-05-24T11:58:17.265Z,187.76
2023-05-24T11:59:17.273Z,188.44
2023-05-24T12:00:17.298Z,188.30
2023-05-24T12:01:17.324Z,187.56
2023-05-24T12:02:17.404Z,187.90
2023-05-24T12:03:17.507Z,186.88
2023-05-24T12:04:17.486Z,187.97
2023-05-24T12:05:17.437Z,186.22
2023-05-24T12:06:17.467Z,187.63
2023-05-24T12:07:17.487Z,186.74
2023-05-24T12:08:17.510Z,188.41
2023-05-24T12:09:17.867Z,187.37
2023-05-24T12:10:17.578Z,186.96
2023-05-24T12:11:17.607Z,187.29
2023-05-24T12:12:17.650Z,186.69
2023-05-24T12:13:17.672Z,185.99
2023-05-24T12:14:17.717Z,185.74
2023-05-24T12:15:17.741Z,185.48
2023-05-24T12:16:17.783Z,184.84
2023-05-24T12:17:17.787Z,185.94
2023-05-24T12:18:17.861Z,185.10
2023-05-24T12:19:31.622Z,185.43
2023-05-24T12:20:18.905Z,185.49
2023-05-24T12:21:18.692Z,185.46
2023-05-24T12:22:17.912Z,184.45
2023-05-24T12:23:17.829Z,185.13
2023-05-24T12:24:17.811Z,182.37
2023-05-24T12:25:17.821Z,177.30
2023-05-24T12:26:17.822Z,172.45
2023-05-24T12:27:17.811Z,172.96
2023-05-24T12:28:17.797Z,167.16
2023-05-24T12:29:17.783Z,159.61
2023-05-24T12:30:17.776Z,153.90
2023-05-24T12:31:17.808Z,152.16